x

Virginia Beach 64 Nm East Of Virginia Beach, Va (44014) Wave Buoy

11:50pm - Mon 29th Jun 2015 All times are EDT. -4 hours from GMT.

  • Sig Wave height 3.6ft
  • Swell Direction
  • Peak Period 8s
  • Average Period 6s
  • Wind
    9mph, 11mph gusts
  • Sea Temp 75°f
  • 空気 Temp 76°f
  • Sea Pressure 1015.2mb
  • Virginia Beach 64 Nm East Of Virginia Beach, Va
  • Virginia Beach 64 Nm East Of Virginia Beach, Va

More Historic Weather Station data

Upgrade to MSW Pro to gain access to the past 30 days of data for over 8000 Wavebouys and Weather Stations around the globe.

Join Pro

Comparision Forecast

View Surf forecast
   
Mon 06/29 11:50pm 3.5ft 8s 6s 9 11 mph 1015.2mb 75f 76f
10:50pm 3.5ft 7s 6s 9 11 mph 1015.1mb 75f 76f
9:50pm 3.5ft 8s 6s 11 13 mph 1015mb 76f 76f
8:50pm 3ft 8s 6s 11
mph
1014.5mb 77f 76f
7:50pm 3.5ft 8s 6s 9 11 mph 1014.5mb 77f 77f
6:50pm 3ft 8s 5s 7
mph
1014.5mb 77f 77f
5:50pm 3.5ft 8s 6s 4
mph
1014.7mb 78f 77f
4:50pm 4ft 8s 6s 2 4 mph 1014.7mb 78f 77f
3:50pm 3.5ft 7s 5s 4
mph
1014.9mb 77f 77f
2:50pm 3.5ft 8s 5s 2 4 mph 1015.4mb 76f 77f
1:50pm 4ft 8s 6s 2 4 mph 1015.6mb 77f 77f
12:50pm 4.5ft 8s 6s 2
mph
1015.9mb 77f 77f
11:50am 4.5ft 7s 6s 2 4 mph 1015.9mb 76f 76f
10:50am 4.5ft 8s 6s 2 4 mph 1015.8mb 75f 76f
9:50am 4.5ft 7s 6s 4
mph
1016mb 75f 75f
8:50am 4.5ft 7s 6s 4 7 mph 1015.7mb 74f 75f
7:50am 4.5ft 8s 6s 7
mph
1015.1mb 74f 75f
6:50am 4.5ft 7s 6s 4 7 mph 1014.6mb 74f 75f
5:50am 4ft 8s 6s 7 9 mph 1013.9mb 74f 75f
4:50am 4.5ft 8s 7s 7 9 mph 1013.6mb 74f 75f
3:50am 4.5ft 8s 6s 7 9 mph 1013.1mb 74f 75f
2:50am 4.5ft 8s 6s 9 11 mph 1013.1mb 74f 75f
1:50am 4.5ft 8s 6s 9 13 mph 1012.7mb 75f 76f
12:50am 4.5ft 8s 6s 9
mph
1012mb 75f 76f
Sun 06/28 11:50pm 5ft 8s 6s 9 11 mph 1011.8mb 75f 76f
10:50pm 5.5ft 8s 6s 11 13 mph 1012.1mb 75f 77f
9:50pm 6ft 8s 6s 13 18 mph 1011.7mb 75f 77f
8:50pm 6ft 9s 6s 9 11 mph 1011.6mb 75f 76f
7:50pm 6ft 8s 6s 9 11 mph 1010.9mb 75f 77f
6:50pm 6ft 8s 6s 11 16 mph 1009.9mb 75f 77f
5:50pm 7ft 8s 6s 11
mph
1009.2mb 75f 78f
4:50pm 6ft 8s 6s 13 16 mph 1008.5mb 75f 78f
3:50pm 7ft 8s 6s 16 20 mph 1008.5mb 75f 78f
2:50pm 6ft 8s 6s 13 18 mph 1008.6mb 75f 76f
1:50pm 6ft 8s 6s 13 18 mph 1008.6mb 75f 76f
12:50pm 6.5ft 9s 6s 16 20 mph 1008.6mb 75f 77f
11:50am 7ft 8s 6s 13 18 mph 1008.5mb 75f 76f
10:50am 7ft 8s 6s 11 13 mph 1008.4mb 74f 76f
9:50am 7ft 9s 7s 16 20 mph 1008.1mb 74f 76f
8:50am 7.5ft 9s 6s 18 22 mph 1008mb 74f 76f
7:50am 8ft 9s 7s 13 18 mph 1007.2mb 74f 76f
6:50am 8ft 8s 6s 20 25 mph 1006.7mb 74f 76f
5:50am 8ft 8s 6s 20 25 mph 1006.2mb 74f 77f
4:50am 7ft 8s 6s 22 27 mph 1005.6mb 74f 77f
3:50am 6.5ft 8s 6s 11 13 mph 1005.2mb 74f 77f
2:50am 7.5ft 8s 6s 13 18 mph 1005.4mb 74f 77f
1:50am 7ft 8s 6s 18 20 mph 1005.7mb 74f 78f
12:50am 6ft 8s 6s 20 25 mph 1006.5mb 75f 78f
Sat 06/27 11:50pm 6ft 6s 5s 18 22 mph 1007.3mb 75f 76f
10:50pm 5.5ft 7s 5s 22 27 mph 1007.1mb 75f 77f
9:50pm 5ft 7s 5s 18 31 mph 1008.4mb 75f 77f
8:50pm 5.5ft 7s 5s 18 20 mph 1008.8mb 75f 78f
7:50pm 5.5ft 7s 5s 16 18 mph 1008.8mb 75f 78f
6:50pm 5ft 6s 5s 16 18 mph 1008.8mb 75f 77f
5:50pm 4.5ft 6s 5s 13 16 mph 1008.8mb 76f 77f
4:50pm 4.5ft 6s 5s 13 18 mph 1010.3mb 75f 77f
3:50pm 4.5ft 8s 5s 18 20 mph 1010.4mb 75f 78f
2:50pm 4.5ft 6s 5s 18 20 mph 1010.8mb 75f 78f
1:50pm 4.5ft 6s 5s 13 16 mph 1011.6mb 75f 77f
12:50pm 4ft 5s 5s 16 18 mph 1012.7mb 75f 77f
11:50am 4ft 9s 5s 18 20 mph 1013.2mb 75f 77f
10:50am 4ft 6s 5s 18 20 mph 1013.9mb 75f 76f
9:50am 4ft 8s 5s 16 18 mph 1014.1mb 75f 76f
8:50am 3.5ft 8s 5s 16 18 mph 1014mb 75f 76f
7:50am 3.5ft 9s 5s 13 18 mph 1014.6mb 75f 76f
6:50am 3.5ft 9s 5s 13 16 mph 1014.7mb 75f 75f
5:50am 3.5ft 9s 5s 13 16 mph 1014.9mb 75f 75f
4:50am 3ft 7s 5s 13 16 mph 1014.6mb 75f 75f
3:50am 3ft 7s 5s 13 16 mph 1014.3mb 75f 75f
2:50am 3.5ft 7s 5s 16 18 mph 1015mb 75f 75f
1:50am 3.5ft 6s 5s 16 18 mph 1015.2mb 76f 74f
12:50am 3ft 6s 5s 16 18 mph 1015.3mb 75f 74f
Fri 06/26 11:50pm 3ft 9s 5s 16 18 mph 1015.2mb 75f 74f
10:50pm 3ft 6s 5s 13 16 mph 1016mb 75f 73f
9:50pm 3ft 8s 4s 16 18 mph 1016mb 75f 73f
8:50pm 3.5ft 5s 4s 16 18 mph 1015.4mb 75f 73f
7:50pm 3.5ft 5s 5s 13 16 mph 1015.5mb 75f 74f
6:50pm 3.5ft 5s 5s 16 18 mph 1014.6mb 76f 74f
5:50pm 3.5ft 6s 5s 13 16 mph 1014.8mb 76f 75f
4:50pm 3.5ft 6s 5s 13 16 mph 1014.6mb 76f 75f
3:50pm 3.5ft 6s 5s 9 11 mph 1013.7mb 76f 75f
2:50pm 3.5ft 6s 5s 13 16 mph 1012.6mb 76f 74f
1:50pm 4ft 6s 5s 11 13 mph 1014.5mb 76f 75f
12:50pm 4ft 7s 5s 13 16 mph 1014.4mb 76f 76f
11:50am 4.5ft 6s 5s 16 18 mph 1014.4mb 76f 75f
10:50am 4ft 4s 5s 18 22 mph 1014.1mb 76f 76f
9:50am 4ft 6s 5s 16 20 mph 1013.6mb 76f 76f
8:50am 4ft 6s 4s 13 16 mph 1012.8mb 76f 75f
7:50am 4.5ft 7s 4s 18 22 mph 1012.5mb 76f 75f
6:50am 4.5ft 6s 5s 22 27 mph 1012mb 76f 75f
5:50am 5ft 6s 4s 20 25 mph 1012.2mb 76f 75f
4:50am 6ft 6s 5s 22 29 mph 1011.4mb 76f 74f